Time;durP1;ratioP1;P1;durP2;ratioP2;P2;SDS_P1;SDS_P2;PMS_P1;PMS_P2;Temp;Humidity;BMP_temperature;BMP_pressure;BME280_temperature;BME280_humidity;BME280_pressure;Samples;Min_cycle;Max_cycle;Signal;HPM_P1;HPM_P2
2023/07/22 00:00:49;;;;;;;7.05;2.78;;;14.20;99.90;;;;;;5026970;28;20141;-54
2023/07/22 00:03:15;;;;;;;7.32;2.80;;;14.20;99.90;;;;;;5032182;28;20048;-55
2023/07/22 00:05:42;;;;;;;4.55;3.00;;;14.10;99.90;;;;;;5051964;28;20095;-55
2023/07/22 00:08:09;;;;;;;4.22;2.50;;;14.10;99.90;;;;;;5048902;28;20041;-55
2023/07/22 00:10:34;;;;;;;5.20;2.65;;;14.10;99.90;;;;;;5017233;28;21093;-53
2023/07/22 00:13:01;;;;;;;6.38;2.80;;;14.10;99.90;;;;;;5017927;28;20598;-55
2023/07/22 00:15:26;;;;;;;6.57;2.50;;;14.00;99.90;;;;;;5034356;28;20418;-55
2023/07/22 00:17:52;;;;;;;5.50;2.80;;;14.00;99.90;;;;;;5016155;28;20468;-55
2023/07/22 00:20:19;;;;;;;6.63;2.92;;;14.00;99.90;;;;;;5033130;28;20048;-55
2023/07/22 00:22:45;;;;;;;4.55;2.40;;;14.00;99.90;;;;;;5034669;28;20567;-54
2023/07/22 00:25:12;;;;;;;7.18;2.30;;;14.00;99.90;;;;;;5045813;28;20111;-55
2023/07/22 00:27:43;;;;;;;5.85;3.13;;;13.90;99.90;;;;;;5034931;28;20135;-55
2023/07/22 00:30:09;;;;;;;3.83;2.30;;;13.90;99.90;;;;;;5020748;28;20045;-56
2023/07/22 00:32:39;;;;;;;7.85;2.47;;;13.90;99.90;;;;;;5029977;28;20041;-55
2023/07/22 00:35:05;;;;;;;6.32;2.90;;;13.90;99.90;;;;;;5041792;28;20068;-54
2023/07/22 00:37:32;;;;;;;4.38;2.53;;;13.90;99.90;;;;;;5030389;28;20287;-52
2023/07/22 00:39:58;;;;;;;3.55;2.10;;;13.90;99.90;;;;;;5033541;28;20515;-55
2023/07/22 00:42:24;;;;;;;4.50;2.10;;;13.90;99.90;;;;;;5036496;28;20060;-55
2023/07/22 00:44:50;;;;;;;4.13;2.40;;;13.90;99.90;;;;;;5027092;28;20045;-54
2023/07/22 00:47:17;;;;;;;7.93;2.60;;;13.90;99.90;;;;;;5010111;28;20415;-52
2023/07/22 00:49:44;;;;;;;3.97;2.15;;;13.90;99.90;;;;;;4999394;28;20033;-55
2023/07/22 00:52:09;;;;;;;5.03;1.90;;;13.90;99.90;;;;;;5027374;28;20487;-55
2023/07/22 00:54:35;;;;;;;3.63;1.75;;;13.90;99.90;;;;;;5049088;28;20028;-54
2023/07/22 00:57:01;;;;;;;6.57;2.22;;;14.00;99.90;;;;;;5012422;28;20538;-55
2023/07/22 00:59:27;;;;;;;4.40;2.13;;;13.90;99.90;;;;;;5029845;28;20125;-54
2023/07/22 01:01:53;;;;;;;3.17;1.80;;;13.90;99.90;;;;;;5028231;28;20045;-53
2023/07/22 01:04:22;;;;;;;4.82;2.25;;;14.00;99.90;;;;;;5033180;28;20111;-54
2023/07/22 01:06:50;;;;;;;5.75;2.45;;;13.90;99.90;;;;;;5030394;28;20110;-55
2023/07/22 01:09:16;;;;;;;3.95;1.88;;;14.00;99.90;;;;;;5044795;28;20055;-54
2023/07/22 01:11:42;;;;;;;4.32;1.90;;;14.00;99.90;;;;;;5044545;28;20021;-55
2023/07/22 01:14:09;;;;;;;3.17;1.85;;;13.90;99.90;;;;;;5034192;28;20044;-55
2023/07/22 01:16:35;;;;;;;4.57;2.20;;;13.90;99.90;;;;;;4993314;28;20036;-55
2023/07/22 01:19:04;;;;;;;6.18;1.95;;;13.90;99.90;;;;;;5019236;28;20037;-55
2023/07/22 01:21:32;;;;;;;6.15;2.08;;;13.90;99.90;;;;;;5010774;28;20044;-55
2023/07/22 01:23:58;;;;;;;4.15;2.10;;;13.90;99.90;;;;;;5032670;28;20351;-55
2023/07/22 01:26:24;;;;;;;4.82;2.10;;;13.90;99.90;;;;;;5014752;28;20045;-55
2023/07/22 01:28:50;;;;;;;4.82;2.40;;;13.80;99.90;;;;;;5028232;28;20161;-55
2023/07/22 01:31:15;;;;;;;4.32;2.15;;;13.80;99.90;;;;;;5036589;28;20029;-55
2023/07/22 01:33:41;;;;;;;5.00;2.40;;;13.80;99.90;;;;;;5004389;28;20068;-55
2023/07/22 01:36:07;;;;;;;6.60;3.30;;;13.70;99.90;;;;;;5012648;28;20041;-54
2023/07/22 01:38:34;;;;;;;6.03;2.78;;;13.70;99.90;;;;;;5045944;28;20500;-54
2023/07/22 01:41:00;;;;;;;5.65;1.88;;;13.70;99.90;;;;;;5012844;28;20040;-55
2023/07/22 01:43:25;;;;;;;3.83;2.10;;;13.60;99.90;;;;;;5041595;28;20048;-54
2023/07/22 01:45:53;;;;;;;6.32;2.13;;;13.60;99.90;;;;;;5032180;28;20055;-55
2023/07/22 01:48:18;;;;;;;5.30;2.35;;;13.60;99.90;;;;;;5025468;28;20040;-55
2023/07/22 01:50:44;;;;;;;4.68;2.35;;;13.60;99.90;;;;;;5046551;28;20091;-55
2023/07/22 01:53:10;;;;;;;4.78;2.50;;;13.50;99.90;;;;;;5009158;28;20480;-55
2023/07/22 01:55:36;;;;;;;4.82;2.25;;;13.40;99.90;;;;;;5038159;28;20037;-55
2023/07/22 01:58:01;;;;;;;5.53;2.33;;;13.40;99.90;;;;;;5030485;28;20036;-54
2023/07/22 02:00:28;;;;;;;4.60;2.40;;;13.40;99.90;;;;;;5026806;28;20044;-55
2023/07/22 02:02:53;;;;;;;7.30;2.78;;;13.30;99.90;;;;;;5008969;28;20041;-55
2023/07/22 02:05:20;;;;;;;3.55;1.95;;;13.30;99.90;;;;;;5010899;28;20551;-54
2023/07/22 02:07:46;;;;;;;6.55;3.03;;;13.20;99.90;;;;;;5024586;28;20083;-55
2023/07/22 02:10:13;;;;;;;9.95;2.72;;;13.20;99.90;;;;;;5028688;28;20452;-55
2023/07/22 02:12:38;;;;;;;5.82;2.22;;;13.10;99.90;;;;;;5026143;28;20456;-55
2023/07/22 02:15:05;;;;;;;5.10;2.17;;;13.20;99.90;;;;;;5032331;28;20032;-54
2023/07/22 02:17:30;;;;;;;3.70;2.15;;;13.20;99.90;;;;;;5009323;28;20037;-54
2023/07/22 02:19:57;;;;;;;6.68;2.45;;;13.20;99.90;;;;;;5032188;28;20040;-55
2023/07/22 02:23:05;;;;;;;6.65;2.63;;;13.10;99.90;;;;;;5039280;28;20049;-55
2023/07/22 02:25:30;;;;;;;4.22;2.60;;;13.10;99.90;;;;;;5025298;28;20508;-55
2023/07/22 02:27:56;;;;;;;5.38;2.78;;;13.00;99.90;;;;;;5008045;28;20048;-55
2023/07/22 02:30:22;;;;;;;5.90;2.90;;;13.00;99.90;;;;;;5043225;28;20041;-55
2023/07/22 02:32:48;;;;;;;4.38;2.80;;;13.00;99.90;;;;;;5013805;28;20049;-55
2023/07/22 02:35:13;;;;;;;5.82;3.30;;;12.90;99.90;;;;;;4993088;28;20038;-55
2023/07/22 02:37:39;;;;;;;8.65;3.15;;;12.90;99.90;;;;;;5028532;28;20061;-55
2023/07/22 02:40:07;;;;;;;3.90;2.63;;;12.90;99.90;;;;;;5023225;28;20045;-54
2023/07/22 02:42:35;;;;;;;6.95;2.75;;;12.90;99.90;;;;;;5021768;28;20421;-55
2023/07/22 02:45:01;;;;;;;6.25;2.78;;;12.90;99.90;;;;;;5023722;28;20033;-54
2023/07/22 02:47:28;;;;;;;6.03;3.72;;;12.90;99.90;;;;;;5023785;28;20083;-52
2023/07/22 02:49:54;;;;;;;5.13;2.83;;;12.90;99.90;;;;;;5011252;28;20033;-52
2023/07/22 02:52:20;;;;;;;5.75;2.53;;;12.80;99.90;;;;;;5012760;28;20048;-54
2023/07/22 02:55:05;;;;;;;5.38;3.20;;;12.80;99.90;;;;;;5039010;28;20519;-52
2023/07/22 02:57:31;;;;;;;6.82;3.10;;;12.80;99.90;;;;;;5045143;28;20476;-53
2023/07/22 02:59:57;;;;;;;4.63;2.90;;;12.80;99.90;;;;;;5021290;28;20095;-54
2023/07/22 03:02:22;;;;;;;7.30;3.08;;;12.80;99.90;;;;;;5028867;28;20067;-54
2023/07/22 03:04:48;;;;;;;5.22;3.00;;;12.80;99.90;;;;;;5006815;28;20491;-55
2023/07/22 03:07:14;;;;;;;7.35;3.33;;;12.80;99.90;;;;;;5026460;28;20041;-54
2023/07/22 03:09:40;;;;;;;9.68;3.08;;;12.80;99.90;;;;;;5007806;28;20044;-54
2023/07/22 03:12:06;;;;;;;7.05;3.33;;;12.70;99.90;;;;;;5022060;28;20044;-52
2023/07/22 03:14:37;;;;;;;4.60;2.83;;;12.70;99.90;;;;;;5029980;28;20057;-53
2023/07/22 03:17:03;;;;;;;5.13;2.80;;;12.70;99.90;;;;;;5029371;28;20040;-52
2023/07/22 03:19:29;;;;;;;4.82;2.60;;;12.70;99.90;;;;;;5039205;28;20538;-52
2023/07/22 03:21:55;;;;;;;6.07;3.15;;;12.70;99.90;;;;;;5009389;28;20068;-52
2023/07/22 03:24:21;;;;;;;5.40;2.70;;;12.70;99.90;;;;;;5033586;28;20087;-52
2023/07/22 03:26:46;;;;;;;4.13;2.88;;;12.70;99.90;;;;;;5028978;28;20032;-53
2023/07/22 03:29:12;;;;;;;7.20;3.08;;;12.80;99.90;;;;;;5028702;28;20041;-52
2023/07/22 03:31:39;;;;;;;6.35;3.22;;;12.80;99.90;;;;;;5013552;28;20059;-54
2023/07/22 03:34:04;;;;;;;6.75;3.38;;;12.80;99.90;;;;;;5029511;28;20421;-52
2023/07/22 03:36:33;;;;;;;7.47;3.70;;;12.90;99.90;;;;;;5010446;28;20052;-54
2023/07/22 03:38:59;;;;;;;7.45;3.65;;;12.90;99.90;;;;;;5043073;28;20072;-54
2023/07/22 03:41:25;;;;;;;5.90;4.13;;;13.00;99.90;;;;;;5044390;28;20041;-54
2023/07/22 03:43:51;;;;;;;5.13;3.13;;;13.00;99.90;;;;;;5024060;28;20048;-55
2023/07/22 03:46:17;;;;;;;5.30;3.17;;;13.00;99.90;;;;;;5006632;28;20500;-57
2023/07/22 03:48:42;;;;;;;7.90;3.30;;;13.00;99.90;;;;;;5025338;28;20057;-53
2023/07/22 03:51:08;;;;;;;7.32;3.38;;;13.00;99.90;;;;;;5019906;28;20041;-52
2023/07/22 03:53:34;;;;;;;6.93;3.22;;;13.00;99.90;;;;;;5029111;28;20660;-52
2023/07/22 03:56:00;;;;;;;7.72;3.28;;;13.10;99.90;;;;;;5009831;28;20476;-54
2023/07/22 03:58:25;;;;;;;8.98;3.90;;;13.10;99.90;;;;;;5027171;28;20040;-55
2023/07/22 04:00:51;;;;;;;6.22;3.15;;;13.10;99.90;;;;;;5009463;28;20033;-54
2023/07/22 04:03:17;;;;;;;6.53;3.80;;;13.10;99.90;;;;;;5022397;28;20178;-54
2023/07/22 04:05:42;;;;;;;5.88;3.75;;;13.20;99.90;;;;;;5032277;28;20384;-55
2023/07/22 04:08:08;;;;;;;5.85;3.67;;;13.20;99.90;;;;;;5013537;28;20122;-55
2023/07/22 04:10:34;;;;;;;7.55;3.78;;;13.20;99.90;;;;;;5029499;28;20358;-55
2023/07/22 04:12:59;;;;;;;11.30;3.67;;;13.30;99.90;;;;;;5013937;28;20070;-55
2023/07/22 04:17:57;;;;;;;6.85;4.50;;;13.30;99.90;;;;;;5013926;28;20053;-52
2023/07/22 04:20:24;;;;;;;9.10;4.68;;;13.30;99.90;;;;;;5029995;28;20484;-54
2023/07/22 04:22:50;;;;;;;8.40;4.78;;;13.30;99.90;;;;;;5020768;28;20049;-51
2023/07/22 04:25:16;;;;;;;9.48;5.30;;;13.30;99.90;;;;;;5027228;28;20507;-54
2023/07/22 04:27:41;;;;;;;9.00;5.65;;;13.30;99.90;;;;;;5027437;28;20137;-53
2023/07/22 04:30:07;;;;;;;11.63;5.55;;;13.30;99.90;;;;;;5008203;28;20076;-50
2023/07/22 04:32:33;;;;;;;9.68;5.63;;;13.40;99.90;;;;;;5008391;28;20050;-51
2023/07/22 04:34:59;;;;;;;10.48;5.75;;;13.40;99.90;;;;;;5023695;28;20022;-51
2023/07/22 04:37:25;;;;;;;13.20;6.75;;;13.50;99.90;;;;;;5012822;28;20530;-51
2023/07/22 04:39:50;;;;;;;10.73;6.32;;;13.50;99.90;;;;;;5026875;28;20400;-53
2023/07/22 04:42:16;;;;;;;11.65;6.40;;;13.50;99.90;;;;;;5011112;28;20065;-50
2023/07/22 04:44:44;;;;;;;9.48;5.63;;;13.60;99.90;;;;;;5011955;28;20053;-51
2023/07/22 04:47:09;;;;;;;10.75;6.43;;;13.60;99.90;;;;;;5026434;28;20037;-53
2023/07/22 04:49:36;;;;;;;11.93;6.70;;;13.70;99.90;;;;;;5004537;28;20055;-53
2023/07/22 04:52:02;;;;;;;10.75;6.57;;;13.70;99.90;;;;;;4995657;28;20049;-54
2023/07/22 04:54:28;;;;;;;10.85;6.55;;;13.70;99.90;;;;;;4997129;28;20146;-52
2023/07/22 04:56:54;;;;;;;13.40;7.40;;;13.80;99.90;;;;;;4992457;28;20046;-51
2023/07/22 04:59:19;;;;;;;10.43;6.13;;;13.80;99.90;;;;;;5025205;28;20435;-51
2023/07/22 05:01:45;;;;;;;11.00;7.15;;;13.90;99.90;;;;;;5008639;28;20135;-50
2023/07/22 05:04:11;;;;;;;10.48;6.28;;;13.90;99.90;;;;;;5030231;28;20041;-51
2023/07/22 05:06:36;;;;;;;11.13;6.97;;;14.00;99.90;;;;;;5036196;28;20036;-52
2023/07/22 05:09:03;;;;;;;11.77;6.78;;;14.00;99.90;;;;;;5020225;28;20096;-51
2023/07/22 05:11:29;;;;;;;10.45;6.13;;;14.10;99.90;;;;;;5027207;28;20485;-52
2023/07/22 05:13:54;;;;;;;9.52;5.35;;;14.10;99.90;;;;;;5004444;28;20111;-51
2023/07/22 05:16:21;;;;;;;11.27;6.30;;;14.20;99.90;;;;;;5026619;28;20120;-51
2023/07/22 05:18:47;;;;;;;15.50;6.90;;;14.20;99.90;;;;;;5009176;28;20377;-52
2023/07/22 05:21:12;;;;;;;11.15;6.50;;;14.30;99.90;;;;;;5011312;28;20072;-54
2023/07/22 05:23:38;;;;;;;12.15;6.50;;;14.30;99.90;;;;;;5030456;28;20095;-53
2023/07/22 05:26:04;;;;;;;11.25;6.90;;;14.40;99.90;;;;;;4962223;28;20128;-53
2023/07/22 05:28:29;;;;;;;10.98;7.03;;;14.40;99.90;;;;;;4993782;28;20042;-52
2023/07/22 05:30:56;;;;;;;12.93;6.88;;;14.50;99.90;;;;;;5010529;28;20468;-54
2023/07/22 05:33:21;;;;;;;8.25;5.93;;;14.60;99.90;;;;;;5028091;28;20582;-51
2023/07/22 05:35:47;;;;;;;12.75;7.68;;;14.60;99.90;;;;;;5028451;28;20041;-51
2023/07/22 05:38:13;;;;;;;12.85;6.93;;;14.60;99.90;;;;;;5009128;28;20138;-50
2023/07/22 05:40:38;;;;;;;12.18;7.60;;;14.70;99.90;;;;;;5012475;28;20041;-52
2023/07/22 05:43:04;;;;;;;12.93;7.65;;;14.70;99.90;;;;;;4993307;28;20545;-53
2023/07/22 05:45:30;;;;;;;12.88;7.50;;;14.80;99.90;;;;;;5010404;28;20037;-52
2023/07/22 05:47:56;;;;;;;12.25;7.30;;;14.80;99.90;;;;;;5010945;28;20098;-53
2023/07/22 05:50:21;;;;;;;12.20;7.35;;;14.90;99.90;;;;;;5025122;28;20475;-51
2023/07/22 05:52:48;;;;;;;12.32;8.32;;;14.90;99.90;;;;;;5008488;28;20088;-51
2023/07/22 05:55:14;;;;;;;11.70;7.80;;;15.00;99.90;;;;;;4991671;28;20042;-53
2023/07/22 05:57:41;;;;;;;13.52;8.23;;;15.00;99.90;;;;;;5011037;28;20041;-54
2023/07/22 06:00:08;;;;;;;18.33;9.88;;;15.10;99.90;;;;;;5024198;28;20037;-51
2023/07/22 06:02:34;;;;;;;14.85;9.20;;;15.10;99.90;;;;;;5014837;28;20132;-54
2023/07/22 06:05:00;;;;;;;17.30;10.60;;;15.10;99.90;;;;;;4989948;28;20176;-54
2023/07/22 06:07:25;;;;;;;15.68;9.88;;;15.10;99.90;;;;;;5009584;28;20066;-54
2023/07/22 06:09:51;;;;;;;16.63;10.05;;;15.20;99.90;;;;;;5019368;28;20427;-52
2023/07/22 06:12:17;;;;;;;14.05;9.88;;;15.20;99.90;;;;;;5026047;28;20033;-54
2023/07/22 06:14:42;;;;;;;16.02;8.88;;;15.30;99.90;;;;;;5004674;28;20400;-54
2023/07/22 06:17:08;;;;;;;12.45;8.77;;;15.40;99.90;;;;;;5026956;28;20041;-54
2023/07/22 06:19:34;;;;;;;15.75;9.23;;;15.40;99.90;;;;;;5025374;28;20041;-53
2023/07/22 06:21:59;;;;;;;14.27;9.10;;;15.50;99.90;;;;;;5025051;28;20049;-51
2023/07/22 06:24:25;;;;;;;17.35;10.68;;;15.60;99.90;;;;;;5011232;28;20139;-52
2023/07/22 06:26:51;;;;;;;15.82;9.13;;;15.70;99.90;;;;;;5008962;28;20049;-54
2023/07/22 06:29:17;;;;;;;18.55;9.85;;;15.80;99.90;;;;;;4991008;28;20527;-54
2023/07/22 06:31:42;;;;;;;16.08;9.60;;;15.80;99.90;;;;;;5029424;28;20443;-54
2023/07/22 06:34:08;;;;;;;15.73;9.35;;;15.80;99.90;;;;;;4993343;28;20053;-51
2023/07/22 06:36:34;;;;;;;15.32;9.52;;;15.90;99.90;;;;;;5024905;28;20399;-53
2023/07/22 06:38:59;;;;;;;16.92;10.00;;;15.90;99.90;;;;;;5024922;28;20095;-52
2023/07/22 06:41:25;;;;;;;17.08;9.95;;;16.00;99.90;;;;;;5009453;28;20404;-51
2023/07/22 06:43:51;;;;;;;17.77;11.10;;;16.10;99.90;;;;;;4992736;28;20128;-52
2023/07/22 06:46:17;;;;;;;16.48;10.85;;;16.10;99.90;;;;;;5012363;28;20116;-51
2023/07/22 06:48:42;;;;;;;18.48;10.55;;;16.20;99.90;;;;;;5025754;28;20052;-51
2023/07/22 06:51:08;;;;;;;16.10;10.85;;;16.20;99.90;;;;;;5007868;28;20628;-52
2023/07/22 06:53:34;;;;;;;16.55;10.52;;;16.30;99.90;;;;;;5027618;28;20037;-54
2023/07/22 06:55:59;;;;;;;15.77;10.65;;;16.30;99.90;;;;;;5008859;28;20069;-51
2023/07/22 06:58:27;;;;;;;17.00;10.15;;;16.30;99.90;;;;;;5009046;28;20056;-53
2023/07/22 07:00:53;;;;;;;15.88;10.93;;;16.30;99.90;;;;;;4992194;28;20041;-54
2023/07/22 07:03:21;;;;;;;16.05;11.20;;;16.30;99.90;;;;;;5016124;28;20057;-51
2023/07/22 07:05:55;;;;;;;17.85;11.05;;;16.40;99.90;;;;;;5022575;28;20045;-55
2023/07/22 07:08:21;;;;;;;16.95;10.70;;;16.40;99.90;;;;;;5020032;28;20041;-54
2023/07/22 07:10:47;;;;;;;16.60;11.48;;;16.50;99.90;;;;;;5006490;28;21511;-52
2023/07/22 07:13:13;;;;;;;18.00;11.90;;;16.60;99.90;;;;;;5005261;28;20505;-51
2023/07/22 07:15:39;;;;;;;18.50;11.85;;;16.70;99.90;;;;;;4995908;28;20073;-53
2023/07/22 07:18:05;;;;;;;15.43;10.52;;;16.80;99.90;;;;;;5023363;28;20038;-53
2023/07/22 07:20:31;;;;;;;17.17;10.35;;;16.90;99.90;;;;;;5024424;28;20496;-54
2023/07/22 07:22:56;;;;;;;18.35;11.10;;;16.90;99.90;;;;;;5033195;28;20034;-54
2023/07/22 07:25:22;;;;;;;18.10;11.15;;;16.90;99.90;;;;;;5019976;28;20081;-52
2023/07/22 07:27:48;;;;;;;14.48;9.85;;;17.00;99.90;;;;;;5011417;28;20487;-52
2023/07/22 07:30:14;;;;;;;17.35;10.38;;;17.00;99.90;;;;;;5020486;28;20105;-54
2023/07/22 07:32:40;;;;;;;14.48;9.65;;;17.00;99.90;;;;;;5022433;28;20057;-51
2023/07/22 07:35:06;;;;;;;16.67;9.75;;;17.00;99.90;;;;;;4987385;28;20313;-54
2023/07/22 07:37:33;;;;;;;16.65;9.88;;;17.10;99.90;;;;;;5004482;28;20506;-52
2023/07/22 07:39:59;;;;;;;13.98;9.13;;;17.10;99.90;;;;;;5026414;28;20453;-54
2023/07/22 07:42:28;;;;;;;15.27;9.20;;;17.10;99.90;;;;;;5014411;28;20250;-54
2023/07/22 07:44:54;;;;;;;13.43;9.88;;;17.20;99.90;;;;;;5024072;28;20127;-51
2023/07/22 07:47:20;;;;;;;13.05;9.25;;;17.30;99.90;;;;;;5001405;28;20076;-54
2023/07/22 07:49:46;;;;;;;13.50;8.82;;;17.30;99.90;;;;;;5025481;28;20038;-53
2023/07/22 07:52:11;;;;;;;13.50;9.45;;;17.30;99.90;;;;;;5033423;28;20041;-54
2023/07/22 07:54:37;;;;;;;13.65;9.48;;;17.40;99.90;;;;;;4995044;28;20636;-54
2023/07/22 07:57:03;;;;;;;14.85;9.40;;;17.60;99.90;;;;;;5009700;28;20224;-52
2023/07/22 07:59:29;;;;;;;13.77;9.80;;;17.70;99.90;;;;;;5008370;28;20463;-53
2023/07/22 08:01:54;;;;;;;13.13;9.07;;;17.80;99.90;;;;;;5026365;28;20029;-52
2023/07/22 08:04:20;;;;;;;11.30;8.50;;;17.90;99.90;;;;;;4999678;28;20107;-52
2023/07/22 08:06:46;;;;;;;11.88;9.07;;;17.90;99.90;;;;;;5026761;28;20052;-54
2023/07/22 08:09:18;;;;;;;12.38;8.32;;;18.00;99.90;;;;;;5014213;28;20044;-52
2023/07/22 08:11:44;;;;;;;10.80;7.45;;;18.00;99.90;;;;;;5025114;28;20514;-54
2023/07/22 08:14:10;;;;;;;9.90;7.47;;;18.10;99.90;;;;;;4995158;28;20037;-55
2023/07/22 08:16:35;;;;;;;11.68;6.43;;;18.10;99.90;;;;;;5003849;28;20048;-54
2023/07/22 08:19:01;;;;;;;11.00;6.47;;;18.20;99.90;;;;;;5011255;28;20042;-55
2023/07/22 08:21:27;;;;;;;11.20;7.05;;;18.20;99.90;;;;;;5006353;28;20120;-55
2023/07/22 08:23:52;;;;;;;10.50;7.45;;;18.20;99.90;;;;;;5020688;28;20037;-52
2023/07/22 08:26:20;;;;;;;13.05;8.55;;;18.30;99.90;;;;;;5020581;28;20148;-54
2023/07/22 08:28:47;;;;;;;11.57;8.13;;;18.30;99.90;;;;;;5010434;28;20053;-55
2023/07/22 08:31:13;;;;;;;10.68;7.55;;;18.30;99.90;;;;;;5023609;28;20048;-55
2023/07/22 08:33:38;;;;;;;12.98;8.18;;;18.30;99.90;;;;;;5004201;28;20038;-54
2023/07/22 08:36:05;;;;;;;10.57;7.97;;;18.20;99.90;;;;;;5022061;28;20053;-54
2023/07/22 08:39:09;;;;;;;14.27;8.25;;;18.20;99.90;;;;;;5009490;28;20097;-52
2023/07/22 08:41:36;;;;;;;12.07;7.65;;;18.10;99.90;;;;;;5023574;28;20026;-53
2023/07/22 08:44:04;;;;;;;11.63;7.90;;;18.00;99.90;;;;;;5020645;28;20083;-54
2023/07/22 08:46:32;;;;;;;12.93;9.80;;;17.90;99.90;;;;;;5022938;28;20116;-53
2023/07/22 08:49:00;;;;;;;13.20;9.15;;;17.90;99.90;;;;;;5006806;28;20042;-53
2023/07/22 08:51:29;;;;;;;12.63;8.10;;;17.90;99.90;;;;;;5026130;28;20030;-55
2023/07/22 08:53:59;;;;;;;15.52;8.90;;;17.90;99.90;;;;;;5010977;28;20049;-54
2023/07/22 08:56:25;;;;;;;14.70;10.32;;;17.80;99.90;;;;;;5026862;28;20044;-52
2023/07/22 08:58:55;;;;;;;16.00;9.88;;;17.80;99.90;;;;;;5012089;28;20050;-53
2023/07/22 09:01:22;;;;;;;25.92;15.35;;;17.80;99.90;;;;;;4994362;28;20046;-54
2023/07/22 09:03:52;;;;;;;20.33;13.85;;;17.70;99.90;;;;;;5028765;28;20110;-51
2023/07/22 09:06:19;;;;;;;21.92;15.18;;;17.50;99.90;;;;;;5013145;28;20119;-54
2023/07/22 09:08:45;;;;;;;30.90;18.25;;;17.30;99.90;;;;;;5019905;28;20489;-54
2023/07/22 09:11:20;;;;;;;29.20;19.50;;;17.20;99.90;;;;;;5019023;28;20042;-57
2023/07/22 09:13:47;;;;;;;29.05;20.35;;;17.10;99.90;;;;;;5018461;28;20152;-54
2023/07/22 09:16:13;;;;;;;26.23;18.48;;;17.10;99.90;;;;;;5010073;28;20041;-55
2023/07/22 09:18:39;;;;;;;28.05;19.60;;;17.10;99.90;;;;;;5022579;28;20045;-51
2023/07/22 09:21:05;;;;;;;24.42;16.75;;;17.20;99.90;;;;;;5018308;28;20650;-55
2023/07/22 09:23:38;;;;;;;21.35;13.70;;;17.30;99.90;;;;;;5026491;28;20095;-55
2023/07/22 09:26:17;;;;;;;17.08;11.77;;;17.50;99.90;;;;;;5020821;28;20088;-55
2023/07/22 09:28:53;;;;;;;15.93;11.13;;;17.60;99.90;;;;;;5021245;28;20045;-55
2023/07/22 09:31:23;;;;;;;18.23;11.57;;;17.60;99.90;;;;;;5022857;28;20087;-55
2023/07/22 09:33:50;;;;;;;16.52;10.70;;;17.60;99.90;;;;;;4997081;28;20249;-56
2023/07/22 09:36:16;;;;;;;16.42;10.93;;;17.70;99.90;;;;;;5026048;28;20528;-53
2023/07/22 09:38:42;;;;;;;14.25;9.57;;;17.70;99.90;;;;;;5021518;28;20556;-55
2023/07/22 09:41:08;;;;;;;15.25;9.68;;;17.70;99.90;;;;;;5015665;28;20120;-55
2023/07/22 09:43:41;;;;;;;13.90;9.73;;;17.60;99.90;;;;;;5022688;28;20037;-53
2023/07/22 09:46:10;;;;;;;13.93;9.60;;;17.50;99.90;;;;;;5025324;28;20457;-55
2023/07/22 09:48:40;;;;;;;13.68;8.32;;;17.50;99.90;;;;;;5024157;28;20045;-55
2023/07/22 09:51:11;;;;;;;13.27;8.48;;;17.50;99.90;;;;;;5009050;28;20433;-52
2023/07/22 09:53:36;;;;;;;12.45;8.93;;;17.50;99.90;;;;;;5006529;28;20046;-54
2023/07/22 09:56:05;;;;;;;11.55;8.07;;;17.50;99.90;;;;;;5010909;28;20542;-54
2023/07/22 09:58:32;;;;;;;12.50;7.47;;;17.50;99.90;;;;;;5021078;28;20232;-53
2023/07/22 10:01:00;;;;;;;12.43;7.95;;;17.50;99.90;;;;;;5012796;28;20065;-54
2023/07/22 10:03:30;;;;;;;10.05;7.13;;;17.50;99.90;;;;;;5024734;28;20247;-55
2023/07/22 10:05:59;;;;;;;13.73;7.65;;;17.60;99.90;;;;;;5007647;28;20042;-54
2023/07/22 10:08:29;;;;;;;9.93;7.03;;;17.60;99.90;;;;;;5013287;28;20042;-54
2023/07/22 10:10:59;;;;;;;8.15;6.60;;;17.60;99.90;;;;;;5025302;28;20045;-54
2023/07/22 10:13:26;;;;;;;9.18;6.80;;;17.60;99.90;;;;;;5022155;28;20128;-55
2023/07/22 10:15:52;;;;;;;9.55;6.93;;;17.60;99.90;;;;;;5024088;22;20099;-62
2023/07/22 10:18:19;;;;;;;9.20;6.43;;;17.60;99.90;;;;;;4985714;28;20041;-57
2023/07/22 10:20:46;;;;;;;8.68;6.65;;;17.60;99.90;;;;;;4998322;28;20215;-58
2023/07/22 10:23:14;;;;;;;10.85;6.22;;;17.60;99.90;;;;;;4989729;28;20041;-61
2023/07/22 10:25:42;;;;;;;11.25;5.80;;;17.60;99.90;;;;;;5014201;28;20134;-59
2023/07/22 10:28:08;;;;;;;8.55;5.38;;;17.60;99.90;;;;;;5016725;28;20045;-62
2023/07/22 10:30:34;;;;;;;6.13;5.22;;;17.50;99.90;;;;;;4996438;28;20815;-61
2023/07/22 10:32:59;;;;;;;9.85;5.28;;;17.50;99.90;;;;;;5001351;28;20195;-59
2023/07/22 10:35:31;;;;;;;8.32;4.88;;;17.40;99.90;;;;;;4997382;28;20042;-58
2023/07/22 10:38:17;;;;;;;5.10;4.20;;;17.40;99.90;;;;;;5001703;28;20041;-59
2023/07/22 10:40:49;;;;;;;6.72;4.55;;;17.30;99.90;;;;;;5017128;28;20499;-59
2023/07/22 10:43:24;;;;;;;6.18;4.22;;;17.30;99.90;;;;;;4984777;28;20185;-59
2023/07/22 10:45:55;;;;;;;8.32;4.95;;;17.30;99.90;;;;;;4998339;28;20042;-60
2023/07/22 10:48:25;;;;;;;5.25;4.00;;;17.40;99.90;;;;;;4999840;28;20057;-60
2023/07/22 10:51:04;;;;;;;6.32;4.88;;;17.40;99.90;;;;;;4988721;28;20504;-60
2023/07/22 10:53:30;;;;;;;7.10;5.03;;;17.40;99.90;;;;;;5003964;28;20580;-60
2023/07/22 10:56:05;;;;;;;5.55;4.60;;;17.40;99.90;;;;;;5003946;28;20085;-60
2023/07/22 10:58:54;;;;;;;5.47;4.60;;;17.40;99.90;;;;;;4987646;28;20516;-57
2023/07/22 11:01:28;;;;;;;6.90;5.20;;;17.40;99.90;;;;;;5002189;28;20041;-57
2023/07/22 11:04:31;;;;;;;7.40;5.63;;;17.30;99.90;;;;;;5011038;28;20044;-58
2023/07/22 11:07:00;;;;;;;5.72;4.80;;;17.30;99.90;;;;;;5011621;28;20438;-59
2023/07/22 11:09:29;;;;;;;6.50;4.50;;;17.30;99.90;;;;;;5002084;28;20048;-59
2023/07/22 11:11:57;;;;;;;6.88;5.28;;;17.30;99.90;;;;;;5002852;28;20122;-60
2023/07/22 11:14:25;;;;;;;10.32;4.85;;;17.30;99.90;;;;;;5004733;28;20052;-56
2023/07/22 11:16:51;;;;;;;7.43;4.75;;;17.20;99.90;;;;;;5004292;28;20083;-58
2023/07/22 11:19:19;;;;;;;6.72;5.05;;;17.20;99.90;;;;;;5002659;28;20480;-61
2023/07/22 11:21:46;;;;;;;6.32;4.07;;;17.20;99.90;;;;;;5002574;28;20071;-58
2023/07/22 11:24:12;;;;;;;6.55;4.57;;;17.20;99.90;;;;;;5003417;28;20042;-61
2023/07/22 11:26:39;;;;;;;6.95;5.18;;;17.20;99.90;;;;;;4999254;28;20040;-60
2023/07/22 11:29:06;;;;;;;6.90;5.00;;;17.20;99.90;;;;;;5006650;28;20046;-59
2023/07/22 11:31:44;;;;;;;6.35;5.13;;;17.30;99.90;;;;;;4987052;28;20121;-60
2023/07/22 11:34:10;;;;;;;7.50;5.55;;;17.30;99.90;;;;;;5008225;28;20045;-59
2023/07/22 11:36:36;;;;;;;8.57;5.82;;;17.30;99.90;;;;;;4982729;28;20048;-59
2023/07/22 11:39:05;;;;;;;8.25;6.32;;;17.30;99.90;;;;;;5017437;28;20038;-59
2023/07/22 11:41:32;;;;;;;7.93;6.05;;;17.30;99.90;;;;;;4999837;28;20497;-59
2023/07/22 11:43:58;;;;;;;10.65;6.53;;;17.20;99.90;;;;;;4996897;28;20537;-58
2023/07/22 11:46:25;;;;;;;10.07;7.40;;;17.10;99.90;;;;;;4995770;28;20045;-60
2023/07/22 11:48:52;;;;;;;10.75;6.53;;;16.90;99.90;;;;;;5011279;28;20052;-60
2023/07/22 11:51:24;;;;;;;7.22;5.93;;;16.70;99.90;;;;;;5001338;28;20100;-60
2023/07/22 11:53:52;;;;;;;7.88;6.28;;;16.60;99.90;;;;;;5002491;28;20041;-60
2023/07/22 11:56:23;;;;;;;7.50;4.30;;;16.60;99.90;;;;;;5004793;28;20127;-60
2023/07/22 11:58:55;;;;;;;4.97;3.75;;;16.60;99.90;;;;;;5006631;28;20044;-60
2023/07/22 12:01:21;;;;;;;5.13;3.63;;;16.60;99.90;;;;;;5005679;28;20044;-61
2023/07/22 12:03:47;;;;;;;5.97;4.38;;;16.60;99.90;;;;;;5010734;28;20041;-60
2023/07/22 12:06:14;;;;;;;4.78;3.30;;;16.60;99.90;;;;;;5010703;28;20045;-61
2023/07/22 12:08:48;;;;;;;4.95;3.35;;;16.70;99.90;;;;;;5013882;28;20075;-58
2023/07/22 12:11:18;;;;;;;4.70;3.30;;;16.80;99.90;;;;;;5005596;28;20050;-60
2023/07/22 12:13:50;;;;;;;5.15;3.80;;;16.90;99.90;;;;;;5008259;28;20045;-60
2023/07/22 12:16:23;;;;;;;5.95;3.58;;;17.10;99.90;;;;;;5004822;28;20041;-60
2023/07/22 12:18:49;;;;;;;8.80;4.82;;;17.30;99.90;;;;;;4993768;28;20471;-60
2023/07/22 12:21:15;;;;;;;5.85;4.72;;;17.50;99.90;;;;;;4999636;28;20412;-61
2023/07/22 12:23:43;;;;;;;9.23;4.93;;;17.70;99.90;;;;;;5016845;28;20685;-60
2023/07/22 12:26:09;;;;;;;6.07;4.60;;;17.80;99.90;;;;;;5001528;28;20452;-60
2023/07/22 12:28:34;;;;;;;7.20;5.20;;;18.00;99.90;;;;;;5007580;28;20494;-61
2023/07/22 12:31:00;;;;;;;9.52;4.75;;;18.20;99.90;;;;;;5021648;28;20038;-58
2023/07/22 12:33:27;;;;;;;6.45;4.90;;;18.40;99.90;;;;;;5015422;28;20503;-58
2023/07/22 12:35:54;;;;;;;7.60;4.93;;;18.70;99.90;;;;;;5008137;28;20037;-60
2023/07/22 12:38:21;;;;;;;7.03;5.93;;;18.90;99.90;;;;;;5006413;28;20037;-59
2023/07/22 12:40:46;;;;;;;8.23;5.80;;;19.00;99.90;;;;;;4954912;28;20091;-60
2023/07/22 12:43:12;;;;;;;8.70;5.93;;;19.00;99.90;;;;;;4985891;28;20049;-57